createdAt,value
2022-08-21T00:01:53.162Z,94.10
2022-08-21T00:06:08.686Z,94.00
2022-08-21T00:10:28.095Z,94.00
2022-08-21T00:14:42.689Z,94.00
2022-08-21T00:18:56.558Z,94.00
2022-08-21T00:23:11.778Z,94.00
2022-08-21T00:27:25.547Z,94.00
2022-08-21T00:31:39.445Z,94.10
2022-08-21T00:35:53.405Z,94.20
2022-08-21T00:40:11.607Z,94.30
2022-08-21T00:44:25.669Z,94.40
2022-08-21T00:48:39.445Z,94.40
2022-08-21T00:52:54.270Z,94.30
2022-08-21T00:57:15.049Z,94.30
2022-08-21T01:01:30.648Z,94.30
2022-08-21T01:05:46.614Z,94.20
2022-08-21T01:10:01.165Z,94.30
2022-08-21T01:14:19.420Z,94.50
2022-08-21T01:18:33.339Z,94.40
2022-08-21T01:22:48.635Z,94.40
2022-08-21T01:27:03.209Z,94.30
2022-08-21T01:31:24.801Z,94.30
2022-08-21T01:35:40.820Z,94.20
2022-08-21T01:39:56.156Z,94.20
2022-08-21T01:44:10.178Z,94.10
2022-08-21T01:48:24.718Z,94.10
2022-08-21T01:52:39.553Z,94.00
2022-08-21T01:56:56.329Z,93.90
2022-08-21T02:01:11.251Z,93.90
2022-08-21T02:05:25.158Z,93.90
2022-08-21T02:09:40.217Z,94.00
2022-08-21T02:13:55.466Z,94.00
2022-08-21T02:18:09.392Z,94.00
2022-08-21T02:22:23.245Z,93.90
2022-08-21T02:26:37.171Z,93.80
2022-08-21T02:30:53.004Z,93.80
2022-08-21T02:35:08.217Z,94.00
2022-08-21T02:39:27.033Z,94.00
2022-08-21T02:43:41.422Z,94.00
2022-08-21T02:47:59.565Z,94.00
2022-08-21T02:52:13.748Z,94.10
2022-08-21T02:56:31.503Z,94.00
2022-08-21T03:00:45.850Z,93.80
2022-08-21T03:05:01.409Z,93.70
2022-08-21T03:09:15.280Z,93.60
2022-08-21T03:13:29.400Z,93.60
2022-08-21T03:17:43.288Z,93.60
2022-08-21T03:21:58.478Z,93.60
2022-08-21T03:26:13.844Z,93.60
2022-08-21T03:30:29.393Z,93.60
2022-08-21T03:34:43.214Z,93.50
2022-08-21T03:38:58.477Z,93.50
2022-08-21T03:43:12.700Z,93.80
2022-08-21T03:47:26.611Z,93.50
2022-08-21T03:51:40.802Z,93.50
2022-08-21T03:55:55.972Z,93.60
2022-08-21T04:00:12.965Z,93.70
2022-08-21T04:04:28.805Z,93.70
2022-08-21T04:08:44.016Z,93.60
2022-08-21T04:13:00.186Z,93.50
2022-08-21T04:17:14.393Z,93.40
2022-08-21T04:21:28.166Z,93.30
2022-08-21T04:25:42.622Z,93.20
2022-08-21T04:29:58.367Z,93.10
2022-08-21T04:34:12.502Z,93.10
2022-08-21T04:38:36.444Z,93.10
2022-08-21T04:42:52.724Z,93.10
2022-08-21T04:47:08.129Z,93.10
2022-08-21T04:51:26.270Z,93.10
2022-08-21T04:55:42.722Z,93.10
2022-08-21T04:59:56.834Z,93.00
2022-08-21T05:04:14.744Z,92.90
2022-08-21T05:08:30.438Z,92.90
2022-08-21T05:12:45.951Z,92.80
2022-08-21T05:16:59.782Z,92.70
2022-08-21T05:21:15.166Z,92.50
2022-08-21T05:25:29.248Z,92.40
2022-08-21T05:29:44.166Z,92.30
2022-08-21T05:33:58.124Z,92.20
2022-08-21T05:38:17.615Z,92.00
2022-08-21T05:42:32.341Z,91.80
2022-08-21T05:46:46.126Z,91.60
2022-08-21T05:50:59.902Z,91.40
2022-08-21T05:55:15.071Z,91.60
2022-08-21T05:59:29.948Z,91.10
2022-08-21T06:03:44.883Z,90.90
2022-08-21T06:07:58.642Z,90.70
2022-08-21T06:12:14.784Z,90.40
2022-08-21T06:16:29.203Z,90.10
2022-08-21T06:20:43.419Z,89.80
2022-08-21T06:24:57.242Z,88.60
2022-08-21T06:29:17.407Z,87.10
2022-08-21T06:33:32.837Z,86.30
2022-08-21T06:37:46.763Z,83.90
2022-08-21T06:42:00.973Z,80.60
2022-08-21T06:46:17.439Z,77.50
2022-08-21T06:50:32.099Z,74.20
2022-08-21T06:54:46.378Z,71.80
2022-08-21T06:59:00.193Z,70.60
2022-08-21T07:03:22.849Z,70.10
2022-08-21T07:07:36.616Z,70.00
2022-08-21T07:11:53.524Z,70.20
2022-08-21T07:16:09.199Z,70.20
2022-08-21T07:20:24.423Z,70.50
2022-08-21T07:24:38.277Z,70.10
2022-08-21T07:28:52.507Z,68.80
2022-08-21T07:33:06.325Z,66.90
2022-08-21T07:37:21.498Z,64.50
2022-08-21T07:41:36.501Z,61.50
2022-08-21T07:45:51.344Z,60.30
2022-08-21T07:50:06.703Z,59.80
2022-08-21T07:54:33.386Z,59.70
2022-08-21T07:58:48.370Z,60.30
2022-08-21T08:03:03.403Z,60.70
2022-08-21T08:07:17.227Z,60.50
2022-08-21T08:11:32.630Z,60.60
2022-08-21T08:15:46.559Z,60.50
2022-08-21T08:20:01.758Z,59.60
2022-08-21T08:24:18.455Z,58.90
2022-08-21T08:28:35.749Z,58.00
2022-08-21T08:32:50.478Z,56.50
2022-08-21T08:37:04.645Z,56.10
2022-08-21T08:41:23.840Z,55.40
2022-08-21T08:45:49.984Z,54.20
2022-08-21T08:50:08.256Z,53.30
2022-08-21T08:54:32.385Z,52.90
2022-08-21T08:58:48.501Z,51.30
2022-08-21T09:03:05.262Z,49.60
2022-08-21T09:07:27.410Z,46.60
2022-08-21T09:11:48.357Z,44.30
2022-08-21T09:16:10.575Z,42.00
2022-08-21T09:20:35.662Z,40.20
2022-08-21T09:24:55.787Z,40.10
2022-08-21T09:29:12.258Z,38.90
2022-08-21T09:33:26.189Z,37.40
2022-08-21T09:37:52.705Z,36.80
2022-08-21T09:42:08.605Z,36.70
2022-08-21T09:46:24.788Z,37.30
2022-08-21T09:50:39.543Z,38.10
2022-08-21T09:54:57.091Z,37.90
2022-08-21T09:59:27.048Z,36.80
2022-08-21T10:03:41.004Z,36.90
2022-08-21T10:07:55.106Z,36.90
2022-08-21T10:12:18.099Z,36.70
2022-08-21T10:16:39.985Z,35.40
2022-08-21T10:21:00.698Z,35.70
2022-08-21T10:25:20.688Z,35.10
2022-08-21T10:29:48.717Z,34.00
2022-08-21T10:34:18.285Z,33.10
2022-08-21T10:39:07.337Z,32.70
2022-08-21T10:43:35.891Z,32.20
2022-08-21T10:47:58.040Z,32.20
2022-08-21T10:52:48.300Z,32.70
2022-08-21T11:02:43.883Z,33.10
2022-08-21T11:07:17.139Z,31.90
2022-08-21T11:11:37.124Z,30.30
2022-08-21T11:15:58.740Z,29.40
2022-08-21T11:20:17.992Z,28.80
2022-08-21T11:24:43.787Z,28.30
2022-08-21T11:29:03.965Z,28.20
2022-08-21T11:33:33.568Z,28.10
2022-08-21T11:38:03.932Z,27.60
2022-08-21T11:42:37.990Z,27.40
2022-08-21T11:47:00.712Z,27.20
2022-08-21T11:51:20.877Z,27.10
2022-08-21T11:55:41.869Z,26.70
2022-08-21T12:00:04.024Z,26.70
2022-08-21T12:04:30.870Z,27.40
2022-08-21T12:08:46.720Z,28.20
2022-08-21T12:13:12.362Z,28.70
2022-08-21T12:17:38.590Z,29.20
2022-08-21T12:21:56.689Z,30.20
2022-08-21T12:26:30.934Z,31.40
2022-08-21T12:30:47.381Z,32.60
2022-08-21T12:35:15.610Z,33.60
2022-08-21T12:39:45.234Z,34.60
2022-08-21T12:44:03.881Z,35.60
2022-08-21T12:48:24.816Z,36.30
2022-08-21T12:52:46.422Z,36.70
2022-08-21T12:57:02.146Z,37.30
2022-08-21T13:01:24.230Z,37.50
2022-08-21T13:05:39.454Z,37.60
2022-08-21T13:09:57.867Z,37.60
2022-08-21T13:14:19.941Z,37.00
2022-08-21T13:18:36.725Z,37.00
2022-08-21T13:22:50.836Z,37.70
2022-08-21T13:27:17.149Z,38.20
2022-08-21T13:31:43.191Z,38.70
2022-08-21T13:36:24.176Z,39.20
2022-08-21T13:41:07.159Z,38.90
2022-08-21T13:45:33.427Z,39.20
2022-08-21T13:49:49.811Z,39.50
2022-08-21T13:54:14.993Z,40.00
2022-08-21T13:58:31.675Z,39.90
2022-08-21T14:02:49.177Z,39.80
2022-08-21T14:07:03.980Z,40.10
2022-08-21T14:11:18.545Z,40.30
2022-08-21T14:15:36.593Z,40.60
2022-08-21T14:19:52.257Z,41.10
2022-08-21T14:24:09.617Z,41.40
2022-08-21T14:28:28.692Z,41.40
2022-08-21T14:32:54.864Z,41.50
2022-08-21T14:37:09.996Z,41.40
2022-08-21T14:41:26.628Z,41.00
2022-08-21T14:45:41.632Z,41.00
2022-08-21T14:49:55.579Z,40.80
2022-08-21T14:54:10.786Z,41.00
2022-08-21T14:58:25.559Z,40.70
2022-08-21T15:02:39.532Z,41.20
2022-08-21T15:06:53.399Z,40.80
2022-08-21T15:11:13.106Z,41.10
2022-08-21T15:15:29.606Z,41.60
2022-08-21T15:19:43.889Z,42.00
2022-08-21T15:23:57.673Z,42.20
2022-08-21T15:28:13.955Z,42.10
2022-08-21T15:32:31.163Z,42.10
2022-08-21T15:36:44.977Z,42.20
2022-08-21T15:40:59.229Z,42.20
2022-08-21T15:51:09.094Z,42.50
2022-08-21T15:55:43.103Z,42.50
2022-08-21T16:00:24.083Z,42.70
2022-08-21T16:04:58.101Z,43.00
2022-08-21T16:09:33.143Z,42.80
2022-08-21T16:14:07.080Z,42.80
2022-08-21T16:18:41.079Z,42.90
2022-08-21T16:23:15.127Z,43.00
2022-08-21T16:27:45.240Z,43.20
2022-08-21T16:32:20.084Z,43.20
2022-08-21T16:36:54.067Z,43.40
2022-08-21T16:41:32.058Z,43.50
2022-08-21T16:46:08.066Z,43.60
2022-08-21T16:50:51.031Z,43.60
2022-08-21T16:55:23.519Z,43.60
2022-08-21T16:59:57.057Z,43.80
2022-08-21T17:04:32.116Z,43.90
2022-08-21T17:09:08.061Z,44.00
2022-08-21T17:13:42.033Z,44.10
2022-08-21T17:18:10.193Z,44.30
2022-08-21T17:22:45.011Z,44.40
2022-08-21T17:27:20.054Z,44.60
2022-08-21T17:32:00.034Z,44.80
2022-08-21T17:36:35.045Z,45.10
2022-08-21T17:41:10.038Z,45.30
2022-08-21T17:45:44.109Z,45.40
2022-08-21T17:50:27.037Z,45.40
2022-08-21T17:55:00.008Z,45.80
2022-08-21T17:59:39.043Z,46.20
2022-08-21T18:04:13.701Z,46.60
2022-08-21T18:08:40.180Z,47.30
2022-08-21T18:13:18.001Z,47.60
2022-08-21T18:17:55.022Z,48.30
2022-08-21T18:22:28.020Z,48.80
2022-08-21T18:27:03.013Z,50.10
2022-08-21T18:31:31.164Z,50.50
2022-08-21T18:36:06.000Z,51.20
2022-08-21T18:40:41.992Z,51.70
2022-08-21T18:45:18.039Z,52.70
2022-08-21T18:49:51.558Z,53.60
2022-08-21T18:54:19.166Z,54.10
2022-08-21T18:58:52.980Z,54.40
2022-08-21T19:03:29.009Z,54.90
2022-08-21T19:08:03.004Z,55.20
2022-08-21T19:12:39.996Z,55.50
2022-08-21T19:17:06.961Z,55.50
2022-08-21T19:21:41.013Z,55.80
2022-08-21T19:26:15.962Z,56.10
2022-08-21T19:30:51.958Z,56.70
2022-08-21T19:35:25.968Z,57.90
2022-08-21T19:40:00.013Z,57.30
2022-08-21T19:44:31.014Z,57.80
2022-08-21T19:49:06.954Z,57.70
2022-08-21T19:53:41.955Z,57.80
2022-08-21T19:58:16.981Z,58.10
2022-08-21T20:02:55.933Z,58.50
2022-08-21T20:07:31.040Z,59.10
2022-08-21T20:12:10.590Z,59.20
2022-08-21T20:16:38.104Z,59.50
2022-08-21T20:21:16.989Z,60.40
2022-08-21T20:25:52.982Z,60.70
2022-08-21T20:30:25.915Z,60.70
2022-08-21T20:34:59.928Z,61.90
2022-08-21T20:39:32.973Z,61.40
2022-08-21T20:44:04.349Z,62.00
2022-08-21T20:48:48.955Z,62.20
2022-08-21T20:53:43.743Z,62.50
2022-08-21T20:58:22.947Z,62.70
2022-08-21T21:03:13.918Z,62.80
2022-08-21T21:07:58.905Z,62.90
2022-08-21T21:12:41.914Z,63.40
2022-08-21T21:17:28.503Z,63.60
2022-08-21T21:22:10.891Z,63.90
2022-08-21T21:26:44.665Z,64.20
2022-08-21T21:31:23.932Z,64.60
2022-08-21T21:36:02.042Z,65.10
2022-08-21T21:40:53.896Z,65.20
2022-08-21T21:45:36.350Z,65.20
2022-08-21T21:50:20.912Z,65.30
2022-08-21T21:55:09.867Z,65.50
2022-08-21T21:59:57.870Z,65.70
2022-08-21T22:04:51.169Z,66.50
2022-08-21T22:09:56.875Z,66.10
2022-08-21T22:14:31.902Z,66.30
2022-08-21T22:19:13.695Z,66.80
2022-08-21T22:23:51.879Z,67.00
2022-08-21T22:28:40.842Z,67.30
2022-08-21T22:33:19.955Z,67.70
2022-08-21T22:37:59.239Z,68.20
2022-08-21T22:42:33.874Z,68.80
2022-08-21T22:47:09.879Z,68.90
2022-08-21T22:51:51.097Z,69.00
2022-08-21T22:56:35.853Z,69.10
2022-08-21T23:01:13.819Z,69.60
2022-08-21T23:05:50.867Z,70.00
2022-08-21T23:10:32.846Z,70.40
2022-08-21T23:15:08.863Z,71.00
2022-08-21T23:19:57.831Z,71.20
2022-08-21T23:25:03.896Z,71.60
2022-08-21T23:29:48.832Z,72.00
2022-08-21T23:34:37.836Z,72.50
2022-08-21T23:39:25.810Z,72.90
2022-08-21T23:44:16.832Z,73.30
2022-08-21T23:48:59.820Z,73.40
2022-08-21T23:53:51.836Z,73.70
2022-08-21T23:58:36.781Z,74.00
